sensor_id;sensor_type;location;lat;lon;timestamp;P1;P2;P0
50589;PMS7003;36547;50.514;30.840;2023-07-28T00:00:44;0.00;0.00;0.00
50589;PMS7003;36547;50.514;30.840;2023-07-28T00:01:47;0.80;0.80;0.70
50589;PMS7003;36547;50.514;30.840;2023-07-28T00:02:49;0.60;0.60;0.60
50589;PMS7003;36547;50.514;30.840;2023-07-28T00:03:52;0.50;0.50;0.50
50589;PMS7003;36547;50.514;30.840;2023-07-28T00:04:54;0.50;0.50;0.50
50589;PMS7003;36547;50.514;30.840;2023-07-28T00:05:57;0.10;0.10;0.10
50589;PMS7003;36547;50.514;30.840;2023-07-28T00:06:59;1.00;1.00;1.00
50589;PMS7003;36547;50.514;30.840;2023-07-28T00:08:01;0.10;0.10;0.00
50589;PMS7003;36547;50.514;30.840;2023-07-28T00:09:04;0.64;0.64;0.64
50589;PMS7003;36547;50.514;30.840;2023-07-28T00:10:08;0.20;0.20;0.10
50589;PMS7003;36547;50.514;30.840;2023-07-28T00:11:11;0.00;0.00;0.00
50589;PMS7003;36547;50.514;30.840;2023-07-28T00:12:15;0.70;0.30;0.30
50589;PMS7003;36547;50.514;30.840;2023-07-28T00:13:17;2.27;1.00;0.73
50589;PMS7003;36547;50.514;30.840;2023-07-28T00:14:20;1.00;1.00;0.80
50589;PMS7003;36547;50.514;30.840;2023-07-28T00:15:22;0.40;0.10;0.10
50589;PMS7003;36547;50.514;30.840;2023-07-28T00:16:25;0.10;0.10;0.10
50589;PMS7003;36547;50.514;30.840;2023-07-28T00:17:27;1.60;0.80;0.70
50589;PMS7003;36547;50.514;30.840;2023-07-28T00:18:29;0.60;0.60;0.60
50589;PMS7003;36547;50.514;30.840;2023-07-28T00:19:32;0.30;0.30;0.10
50589;PMS7003;36547;50.514;30.840;2023-07-28T00:20:34;1.00;1.00;1.00
50589;PMS7003;36547;50.514;30.840;2023-07-28T00:21:37;1.30;0.50;0.40
50589;PMS7003;36547;50.514;30.840;2023-07-28T00:22:39;0.80;0.80;0.80
50589;PMS7003;36547;50.514;30.840;2023-07-28T00:23:41;0.10;0.10;0.00
50589;PMS7003;36547;50.514;30.840;2023-07-28T00:24:43;0.50;0.50;0.50
50589;PMS7003;36547;50.514;30.840;2023-07-28T00:25:46;1.00;0.50;0.50
50589;PMS7003;36547;50.514;30.840;2023-07-28T00:26:49;0.20;0.20;0.20
50589;PMS7003;36547;50.514;30.840;2023-07-28T00:27:51;0.82;0.82;0.64
50589;PMS7003;36547;50.514;30.840;2023-07-28T00:28:54;0.80;0.80;0.60
50589;PMS7003;36547;50.514;30.840;2023-07-28T00:29:56;0.40;0.40;0.30
50589;PMS7003;36547;50.514;30.840;2023-07-28T00:30:58;0.60;0.60;0.40
50589;PMS7003;36547;50.514;30.840;2023-07-28T00:32:01;0.80;0.60;0.50
50589;PMS7003;36547;50.514;30.840;2023-07-28T00:33:05;1.00;1.00;0.90
50589;PMS7003;36547;50.514;30.840;2023-07-28T00:34:08;1.27;1.27;1.00
50589;PMS7003;36547;50.514;30.840;2023-07-28T00:35:10;0.90;0.90;0.20
50589;PMS7003;36547;50.514;30.840;2023-07-28T00:36:13;0.00;0.00;0.00
50589;PMS7003;36547;50.514;30.840;2023-07-28T00:37:16;0.40;0.40;0.00
50589;PMS7003;36547;50.514;30.840;2023-07-28T00:38:19;0.40;0.40;0.20
50589;PMS7003;36547;50.514;30.840;2023-07-28T00:39:21;1.00;1.00;1.00
50589;PMS7003;36547;50.514;30.840;2023-07-28T00:40:24;1.18;1.18;1.18
50589;PMS7003;36547;50.514;30.840;2023-07-28T00:41:27;0.30;0.20;0.20
50589;PMS7003;36547;50.514;30.840;2023-07-28T00:42:29;0.50;0.50;0.40
50589;PMS7003;36547;50.514;30.840;2023-07-28T00:43:31;0.00;0.00;0.00
50589;PMS7003;36547;50.514;30.840;2023-07-28T00:44:34;0.40;0.40;0.20
50589;PMS7003;36547;50.514;30.840;2023-07-28T00:45:36;0.70;0.70;0.70
50589;PMS7003;36547;50.514;30.840;2023-07-28T00:46:39;0.73;0.73;0.64
50589;PMS7003;36547;50.514;30.840;2023-07-28T00:47:42;0.40;0.40;0.40
50589;PMS7003;36547;50.514;30.840;2023-07-28T00:48:44;0.00;0.00;0.00
50589;PMS7003;36547;50.514;30.840;2023-07-28T00:49:47;1.20;0.80;0.70
50589;PMS7003;36547;50.514;30.840;2023-07-28T00:50:49;0.30;0.30;0.30
50589;PMS7003;36547;50.514;30.840;2023-07-28T00:51:53;0.80;0.80;0.80
50589;PMS7003;36547;50.514;30.840;2023-07-28T00:52:56;1.00;1.00;1.00
50589;PMS7003;36547;50.514;30.840;2023-07-28T00:53:59;0.60;0.60;0.50
50589;PMS7003;36547;50.514;30.840;2023-07-28T00:55:03;0.20;0.20;0.00
50589;PMS7003;36547;50.514;30.840;2023-07-28T00:56:06;0.55;0.55;0.55
50589;PMS7003;36547;50.514;30.840;2023-07-28T00:57:09;0.20;0.10;0.00
50589;PMS7003;36547;50.514;30.840;2023-07-28T00:58:12;1.00;1.00;0.73
50589;PMS7003;36547;50.514;30.840;2023-07-28T00:59:14;0.70;0.70;0.70
50589;PMS7003;36547;50.514;30.840;2023-07-28T01:00:17;0.90;0.90;0.90
50589;PMS7003;36547;50.514;30.840;2023-07-28T01:01:19;0.60;0.60;0.20
50589;PMS7003;36547;50.514;30.840;2023-07-28T01:02:22;0.70;0.70;0.40
50589;PMS7003;36547;50.514;30.840;2023-07-28T01:03:25;1.50;1.30;1.20
50589;PMS7003;36547;50.514;30.840;2023-07-28T01:04:28;0.60;0.60;0.40
50589;PMS7003;36547;50.514;30.840;2023-07-28T01:05:39;0.00;0.00;0.00
50589;PMS7003;36547;50.514;30.840;2023-07-28T01:07:03;0.30;0.30;0.00
50589;PMS7003;36547;50.514;30.840;2023-07-28T01:08:17;1.00;0.80;0.40
50589;PMS7003;36547;50.514;30.840;2023-07-28T01:09:23;0.80;0.80;0.80
50589;PMS7003;36547;50.514;30.840;2023-07-28T01:10:29;1.00;1.00;1.00
50589;PMS7003;36547;50.514;30.840;2023-07-28T01:11:34;0.90;0.90;0.90
50589;PMS7003;36547;50.514;30.840;2023-07-28T01:12:37;1.09;1.09;0.91
50589;PMS7003;36547;50.514;30.840;2023-07-28T01:13:40;0.70;0.70;0.50
50589;PMS7003;36547;50.514;30.840;2023-07-28T01:14:43;0.80;0.80;0.70
50589;PMS7003;36547;50.514;30.840;2023-07-28T01:15:46;1.60;0.70;0.70
50589;PMS7003;36547;50.514;30.840;2023-07-28T01:16:48;0.60;0.60;0.50
50589;PMS7003;36547;50.514;30.840;2023-07-28T01:17:51;1.00;1.00;0.60
50589;PMS7003;36547;50.514;30.840;2023-07-28T01:18:54;2.00;1.20;1.20
50589;PMS7003;36547;50.514;30.840;2023-07-28T01:19:56;1.00;1.00;0.40
50589;PMS7003;36547;50.514;30.840;2023-07-28T01:21:00;1.00;1.00;0.80
50589;PMS7003;36547;50.514;30.840;2023-07-28T01:27:03;1.00;1.00;1.00
50589;PMS7003;36547;50.514;30.840;2023-07-28T01:28:06;0.60;0.60;0.30
50589;PMS7003;36547;50.514;30.840;2023-07-28T01:29:10;1.10;1.10;0.90
50589;PMS7003;36547;50.514;30.840;2023-07-28T01:30:15;1.60;1.60;1.20
50589;PMS7003;36547;50.514;30.840;2023-07-28T01:31:18;1.00;1.00;1.00
50589;PMS7003;36547;50.514;30.840;2023-07-28T01:32:21;1.27;0.64;0.55
50589;PMS7003;36547;50.514;30.840;2023-07-28T01:33:23;1.20;1.20;1.00
50589;PMS7003;36547;50.514;30.840;2023-07-28T01:34:25;1.00;1.00;0.90
50589;PMS7003;36547;50.514;30.840;2023-07-28T01:35:28;1.00;1.00;0.90
50589;PMS7003;36547;50.514;30.840;2023-07-28T01:36:30;1.20;1.20;1.00
50589;PMS7003;36547;50.514;30.840;2023-07-28T01:37:33;1.40;0.90;0.70
50589;PMS7003;36547;50.514;30.840;2023-07-28T01:38:35;1.20;1.20;0.70
50589;PMS7003;36547;50.514;30.840;2023-07-28T01:39:38;1.00;1.00;1.00
50589;PMS7003;36547;50.514;30.840;2023-07-28T01:40:40;1.60;1.60;1.60
50589;PMS7003;36547;50.514;30.840;2023-07-28T01:41:43;3.09;1.55;1.45
50589;PMS7003;36547;50.514;30.840;2023-07-28T01:42:45;3.00;2.20;2.30
50589;PMS7003;36547;50.514;30.840;2023-07-28T01:43:48;1.60;1.60;1.00
50589;PMS7003;36547;50.514;30.840;2023-07-28T01:44:50;1.40;1.20;1.20
50589;PMS7003;36547;50.514;30.840;2023-07-28T01:45:53;1.20;1.20;1.20
50589;PMS7003;36547;50.514;30.840;2023-07-28T01:46:56;1.30;0.70;0.70
50589;PMS7003;36547;50.514;30.840;2023-07-28T01:47:58;1.00;1.00;1.00
50589;PMS7003;36547;50.514;30.840;2023-07-28T01:49:01;1.90;1.90;1.10
50589;PMS7003;36547;50.514;30.840;2023-07-28T01:50:03;2.40;1.40;1.10
50589;PMS7003;36547;50.514;30.840;2023-07-28T01:51:06;1.10;1.10;1.00
50589;PMS7003;36547;50.514;30.840;2023-07-28T01:52:09;0.80;0.80;0.80
50589;PMS7003;36547;50.514;30.840;2023-07-28T01:53:11;1.50;1.50;1.50
50589;PMS7003;36547;50.514;30.840;2023-07-28T01:54:13;1.80;1.80;1.60
50589;PMS7003;36547;50.514;30.840;2023-07-28T01:55:16;1.70;1.70;1.10
50589;PMS7003;36547;50.514;30.840;2023-07-28T01:56:19;2.45;1.00;1.09
50589;PMS7003;36547;50.514;30.840;2023-07-28T01:57:21;0.80;0.80;0.80
50589;PMS7003;36547;50.514;30.840;2023-07-28T01:58:23;1.60;1.60;1.20
50589;PMS7003;36547;50.514;30.840;2023-07-28T01:59:26;1.00;1.00;0.70
50589;PMS7003;36547;50.514;30.840;2023-07-28T02:00:29;1.60;1.60;1.50
50589;PMS7003;36547;50.514;30.840;2023-07-28T02:01:31;2.40;2.40;1.50
50589;PMS7003;36547;50.514;30.840;2023-07-28T02:02:33;2.50;2.00;1.70
50589;PMS7003;36547;50.514;30.840;2023-07-28T02:03:36;2.40;2.40;2.00
50589;PMS7003;36547;50.514;30.840;2023-07-28T02:04:38;1.60;1.60;1.20
50589;PMS7003;36547;50.514;30.840;2023-07-28T02:05:40;2.90;2.00;1.20
50589;PMS7003;36547;50.514;30.840;2023-07-28T02:06:43;1.90;1.90;1.30
50589;PMS7003;36547;50.514;30.840;2023-07-28T02:07:46;2.10;1.00;1.00
50589;PMS7003;36547;50.514;30.840;2023-07-28T02:08:49;2.30;2.30;1.90
50589;PMS7003;36547;50.514;30.840;2023-07-28T02:09:51;2.00;2.00;2.00
50589;PMS7003;36547;50.514;30.840;2023-07-28T02:10:54;1.90;1.90;1.50
50589;PMS7003;36547;50.514;30.840;2023-07-28T02:11:56;2.60;2.60;1.60
50589;PMS7003;36547;50.514;30.840;2023-07-28T02:12:59;1.70;1.70;1.60
50589;PMS7003;36547;50.514;30.840;2023-07-28T02:14:02;1.70;1.00;1.00
50589;PMS7003;36547;50.514;30.840;2023-07-28T02:15:05;2.18;2.18;1.91
50589;PMS7003;36547;50.514;30.840;2023-07-28T02:16:09;3.40;2.50;2.30
50589;PMS7003;36547;50.514;30.840;2023-07-28T02:17:11;2.30;2.30;1.70
50589;PMS7003;36547;50.514;30.840;2023-07-28T02:18:14;2.30;2.30;2.00
50589;PMS7003;36547;50.514;30.840;2023-07-28T02:19:17;1.10;1.10;1.00
50589;PMS7003;36547;50.514;30.840;2023-07-28T02:20:19;3.20;2.60;1.80
50589;PMS7003;36547;50.514;30.840;2023-07-28T02:21:22;1.80;1.80;1.50
50589;PMS7003;36547;50.514;30.840;2023-07-28T02:22:24;1.50;1.50;1.10
50589;PMS7003;36547;50.514;30.840;2023-07-28T02:23:27;2.82;1.82;1.73
50589;PMS7003;36547;50.514;30.840;2023-07-28T02:24:29;2.30;1.80;1.60
50589;PMS7003;36547;50.514;30.840;2023-07-28T02:25:32;2.00;2.00;2.00
50589;PMS7003;36547;50.514;30.840;2023-07-28T02:26:35;1.90;1.90;1.60
50589;PMS7003;36547;50.514;30.840;2023-07-28T02:27:38;1.73;1.73;1.64
50589;PMS7003;36547;50.514;30.840;2023-07-28T02:28:41;1.82;1.82;1.73
50589;PMS7003;36547;50.514;30.840;2023-07-28T02:29:43;1.45;1.45;1.45
50589;PMS7003;36547;50.514;30.840;2023-07-28T02:30:46;2.60;2.60;2.10
50589;PMS7003;36547;50.514;30.840;2023-07-28T02:31:48;2.30;2.30;1.80
50589;PMS7003;36547;50.514;30.840;2023-07-28T02:32:50;1.80;1.80;1.80
50589;PMS7003;36547;50.514;30.840;2023-07-28T02:33:53;1.10;1.10;0.90
50589;PMS7003;36547;50.514;30.840;2023-07-28T02:34:56;1.30;1.30;1.20
50589;PMS7003;36547;50.514;30.840;2023-07-28T02:35:59;1.70;1.70;1.40
50589;PMS7003;36547;50.514;30.840;2023-07-28T02:37:01;1.80;1.80;1.80
50589;PMS7003;36547;50.514;30.840;2023-07-28T02:38:03;2.40;1.60;0.80
50589;PMS7003;36547;50.514;30.840;2023-07-28T02:39:05;2.00;2.00;1.60
50589;PMS7003;36547;50.514;30.840;2023-07-28T02:40:09;3.64;1.82;1.55
50589;PMS7003;36547;50.514;30.840;2023-07-28T02:41:11;1.09;1.09;0.91
50589;PMS7003;36547;50.514;30.840;2023-07-28T02:42:14;1.70;1.70;1.50
50589;PMS7003;36547;50.514;30.840;2023-07-28T02:43:16;1.60;1.60;1.60
50589;PMS7003;36547;50.514;30.840;2023-07-28T02:44:18;3.40;2.40;1.80
50589;PMS7003;36547;50.514;30.840;2023-07-28T02:45:21;2.70;2.40;2.50
50589;PMS7003;36547;50.514;30.840;2023-07-28T02:46:23;1.50;1.50;1.20
50589;PMS7003;36547;50.514;30.840;2023-07-28T02:47:25;2.00;1.90;1.00
50589;PMS7003;36547;50.514;30.840;2023-07-28T02:48:28;1.10;1.10;1.10
50589;PMS7003;36547;50.514;30.840;2023-07-28T02:49:30;2.70;2.70;2.00
50589;PMS7003;36547;50.514;30.840;2023-07-28T02:50:33;1.60;1.60;1.60
50589;PMS7003;36547;50.514;30.840;2023-07-28T02:51:35;1.70;1.70;1.60
50589;PMS7003;36547;50.514;30.840;2023-07-28T02:52:38;1.80;1.70;1.10
50589;PMS7003;36547;50.514;30.840;2023-07-28T02:53:40;1.80;1.80;1.40
50589;PMS7003;36547;50.514;30.840;2023-07-28T02:54:43;3.00;1.91;1.82
50589;PMS7003;36547;50.514;30.840;2023-07-28T02:55:47;1.90;1.90;1.80
50589;PMS7003;36547;50.514;30.840;2023-07-28T02:56:49;1.50;1.50;1.00
50589;PMS7003;36547;50.514;30.840;2023-07-28T02:57:52;2.70;2.70;2.30
50589;PMS7003;36547;50.514;30.840;2023-07-28T02:58:55;2.20;2.20;1.60
50589;PMS7003;36547;50.514;30.840;2023-07-28T02:59:57;2.00;2.00;2.00
50589;PMS7003;36547;50.514;30.840;2023-07-28T03:01:00;1.45;1.45;0.82
50589;PMS7003;36547;50.514;30.840;2023-07-28T03:02:04;2.00;2.00;2.00
50589;PMS7003;36547;50.514;30.840;2023-07-28T03:03:07;2.30;2.30;2.20
50589;PMS7003;36547;50.514;30.840;2023-07-28T03:04:11;1.90;1.90;1.40
50589;PMS7003;36547;50.514;30.840;2023-07-28T03:05:18;1.90;1.90;1.80
50589;PMS7003;36547;50.514;30.840;2023-07-28T03:06:27;2.50;2.50;1.80
50589;PMS7003;36547;50.514;30.840;2023-07-28T03:07:30;2.45;2.45;2.27
50589;PMS7003;36547;50.514;30.840;2023-07-28T03:08:35;1.70;1.70;1.60
50589;PMS7003;36547;50.514;30.840;2023-07-28T03:09:45;2.00;2.00;2.00
50589;PMS7003;36547;50.514;30.840;2023-07-28T03:10:48;2.40;2.40;2.00
50589;PMS7003;36547;50.514;30.840;2023-07-28T03:11:51;2.80;2.80;2.00
50589;PMS7003;36547;50.514;30.840;2023-07-28T03:12:54;3.40;1.80;1.70
50589;PMS7003;36547;50.514;30.840;2023-07-28T03:13:56;2.20;2.20;2.00
50589;PMS7003;36547;50.514;30.840;2023-07-28T03:14:59;3.60;2.30;1.90
50589;PMS7003;36547;50.514;30.840;2023-07-28T03:16:03;1.60;1.60;1.20
50589;PMS7003;36547;50.514;30.840;2023-07-28T03:17:06;1.50;1.50;1.10
50589;PMS7003;36547;50.514;30.840;2023-07-28T03:18:08;2.20;2.20;2.20
50589;PMS7003;36547;50.514;30.840;2023-07-28T03:19:11;1.80;1.80;1.60
50589;PMS7003;36547;50.514;30.840;2023-07-28T03:20:13;1.00;1.00;0.90
50589;PMS7003;36547;50.514;30.840;2023-07-28T03:21:16;3.10;2.50;2.40
50589;PMS7003;36547;50.514;30.840;2023-07-28T03:22:18;2.20;2.20;1.90
50589;PMS7003;36547;50.514;30.840;2023-07-28T03:23:21;2.00;2.00;1.45
50589;PMS7003;36547;50.514;30.840;2023-07-28T03:24:24;2.60;2.60;2.40
50589;PMS7003;36547;50.514;30.840;2023-07-28T03:25:26;2.20;2.20;1.60
50589;PMS7003;36547;50.514;30.840;2023-07-28T03:26:28;2.30;2.30;1.80
50589;PMS7003;36547;50.514;30.840;2023-07-28T03:27:30;2.40;2.40;2.20
50589;PMS7003;36547;50.514;30.840;2023-07-28T03:28:33;2.20;2.10;2.10
50589;PMS7003;36547;50.514;30.840;2023-07-28T03:29:36;2.40;2.40;1.70
50589;PMS7003;36547;50.514;30.840;2023-07-28T03:30:39;2.00;2.00;2.00
50589;PMS7003;36547;50.514;30.840;2023-07-28T03:31:42;1.80;1.80;1.30
50589;PMS7003;36547;50.514;30.840;2023-07-28T03:32:45;3.45;3.09;2.45
50589;PMS7003;36547;50.514;30.840;2023-07-28T03:33:48;2.40;2.20;2.10
50589;PMS7003;36547;50.514;30.840;2023-07-28T03:34:50;3.40;2.30;2.10
50589;PMS7003;36547;50.514;30.840;2023-07-28T03:35:54;4.00;2.60;2.10
50589;PMS7003;36547;50.514;30.840;2023-07-28T03:36:57;2.40;2.20;1.80
50589;PMS7003;36547;50.514;30.840;2023-07-28T03:38:00;4.20;3.10;2.50
50589;PMS7003;36547;50.514;30.840;2023-07-28T03:39:02;2.90;1.90;1.70
50589;PMS7003;36547;50.514;30.840;2023-07-28T03:40:05;2.50;2.00;1.60
50589;PMS7003;36547;50.514;30.840;2023-07-28T03:41:10;2.10;2.10;2.00
50589;PMS7003;36547;50.514;30.840;2023-07-28T03:42:13;1.82;1.82;1.27
50589;PMS7003;36547;50.514;30.840;2023-07-28T03:43:15;2.40;2.40;2.10
50589;PMS7003;36547;50.514;30.840;2023-07-28T03:44:18;1.70;1.70;1.70
50589;PMS7003;36547;50.514;30.840;2023-07-28T03:45:20;3.00;2.10;2.00
50589;PMS7003;36547;50.514;30.840;2023-07-28T03:46:23;2.45;1.91;1.64
50589;PMS7003;36547;50.514;30.840;2023-07-28T03:47:26;3.40;2.70;2.00
50589;PMS7003;36547;50.514;30.840;2023-07-28T03:48:28;2.20;2.20;2.00
50589;PMS7003;36547;50.514;30.840;2023-07-28T03:49:30;2.10;2.10;2.10
50589;PMS7003;36547;50.514;30.840;2023-07-28T03:50:33;2.90;2.00;1.80
50589;PMS7003;36547;50.514;30.840;2023-07-28T03:51:36;2.10;2.10;1.60
50589;PMS7003;36547;50.514;30.840;2023-07-28T03:52:38;2.70;2.10;1.70
50589;PMS7003;36547;50.514;30.840;2023-07-28T03:53:40;1.50;1.50;1.50
50589;PMS7003;36547;50.514;30.840;2023-07-28T03:54:43;2.00;2.00;1.82
50589;PMS7003;36547;50.514;30.840;2023-07-28T03:55:48;2.00;2.00;1.70
50589;PMS7003;36547;50.514;30.840;2023-07-28T03:56:50;3.00;2.20;1.90
50589;PMS7003;36547;50.514;30.840;2023-07-28T03:57:55;1.70;1.70;1.50
50589;PMS7003;36547;50.514;30.840;2023-07-28T03:58:58;1.27;1.27;1.27
50589;PMS7003;36547;50.514;30.840;2023-07-28T04:00:00;2.70;2.60;2.30
50589;PMS7003;36547;50.514;30.840;2023-07-28T04:01:02;2.20;2.20;2.00
50589;PMS7003;36547;50.514;30.840;2023-07-28T04:02:05;2.50;1.90;1.50
50589;PMS7003;36547;50.514;30.840;2023-07-28T04:03:07;1.10;1.10;1.10
50589;PMS7003;36547;50.514;30.840;2023-07-28T04:04:10;1.70;1.70;1.50
50589;PMS7003;36547;50.514;30.840;2023-07-28T04:05:12;3.80;3.60;2.80
50589;PMS7003;36547;50.514;30.840;2023-07-28T04:06:14;1.90;1.90;1.50
50589;PMS7003;36547;50.514;30.840;2023-07-28T04:07:18;1.90;1.90;1.90
50589;PMS7003;36547;50.514;30.840;2023-07-28T04:08:20;2.80;2.30;2.20
50589;PMS7003;36547;50.514;30.840;2023-07-28T04:09:22;1.70;1.50;1.10
50589;PMS7003;36547;50.514;30.840;2023-07-28T04:10:27;3.20;2.00;1.60
50589;PMS7003;36547;50.514;30.840;2023-07-28T04:11:30;3.10;2.80;2.80
50589;PMS7003;36547;50.514;30.840;2023-07-28T04:12:32;1.50;1.50;1.50
50589;PMS7003;36547;50.514;30.840;2023-07-28T04:13:34;1.60;1.60;1.20
50589;PMS7003;36547;50.514;30.840;2023-07-28T04:14:37;2.80;2.00;2.00
50589;PMS7003;36547;50.514;30.840;2023-07-28T04:15:41;3.20;3.20;2.60
50589;PMS7003;36547;50.514;30.840;2023-07-28T04:16:43;2.00;1.80;1.70
50589;PMS7003;36547;50.514;30.840;2023-07-28T04:17:47;1.70;1.70;1.70
50589;PMS7003;36547;50.514;30.840;2023-07-28T04:18:50;2.10;2.10;2.10
50589;PMS7003;36547;50.514;30.840;2023-07-28T04:19:54;1.60;1.60;1.50
50589;PMS7003;36547;50.514;30.840;2023-07-28T04:20:57;2.70;2.20;1.90
50589;PMS7003;36547;50.514;30.840;2023-07-28T04:21:59;3.20;3.00;2.80
50589;PMS7003;36547;50.514;30.840;2023-07-28T04:23:17;2.00;2.00;2.00
50589;PMS7003;36547;50.514;30.840;2023-07-28T04:25:22;1.80;1.80;1.70
50589;PMS7003;36547;50.514;30.840;2023-07-28T04:26:48;2.40;2.40;2.40
50589;PMS7003;36547;50.514;30.840;2023-07-28T04:27:51;2.20;2.00;1.40
50589;PMS7003;36547;50.514;30.840;2023-07-28T04:28:53;2.20;1.70;1.70
50589;PMS7003;36547;50.514;30.840;2023-07-28T04:29:55;1.70;1.70;1.70
50589;PMS7003;36547;50.514;30.840;2023-07-28T04:30:58;1.82;1.82;1.55
50589;PMS7003;36547;50.514;30.840;2023-07-28T04:32:20;2.10;2.10;1.90
50589;PMS7003;36547;50.514;30.840;2023-07-28T04:33:35;2.80;2.80;2.20
50589;PMS7003;36547;50.514;30.840;2023-07-28T04:34:37;2.90;2.90;2.20
50589;PMS7003;36547;50.514;30.840;2023-07-28T04:35:42;2.30;2.30;1.50
50589;PMS7003;36547;50.514;30.840;2023-07-28T04:36:49;2.80;2.00;1.70
50589;PMS7003;36547;50.514;30.840;2023-07-28T04:37:52;2.50;2.50;2.20
50589;PMS7003;36547;50.514;30.840;2023-07-28T04:38:57;3.30;3.30;3.00
50589;PMS7003;36547;50.514;30.840;2023-07-28T04:39:59;2.20;2.20;2.00
50589;PMS7003;36547;50.514;30.840;2023-07-28T04:41:05;2.70;2.70;2.40
50589;PMS7003;36547;50.514;30.840;2023-07-28T04:42:25;2.20;1.60;1.70
50589;PMS7003;36547;50.514;30.840;2023-07-28T04:43:28;1.80;1.80;1.20
50589;PMS7003;36547;50.514;30.840;2023-07-28T04:44:31;3.20;3.20;2.80
50589;PMS7003;36547;50.514;30.840;2023-07-28T04:45:35;3.70;3.70;2.90
50589;PMS7003;36547;50.514;30.840;2023-07-28T04:46:40;2.30;2.30;2.30
50589;PMS7003;36547;50.514;30.840;2023-07-28T04:47:45;2.50;2.50;2.00
50589;PMS7003;36547;50.514;30.840;2023-07-28T04:48:49;2.40;2.40;1.70
50589;PMS7003;36547;50.514;30.840;2023-07-28T04:50:10;2.70;2.70;1.90
50589;PMS7003;36547;50.514;30.840;2023-07-28T04:51:31;2.20;2.20;2.00
50589;PMS7003;36547;50.514;30.840;2023-07-28T04:52:41;2.40;2.40;2.40
50589;PMS7003;36547;50.514;30.840;2023-07-28T04:53:50;3.60;3.10;2.70
50589;PMS7003;36547;50.514;30.840;2023-07-28T04:54:54;2.10;2.10;1.20
50589;PMS7003;36547;50.514;30.840;2023-07-28T04:55:57;3.50;2.70;2.40
50589;PMS7003;36547;50.514;30.840;2023-07-28T04:56:59;3.70;3.10;2.80
50589;PMS7003;36547;50.514;30.840;2023-07-28T04:58:03;2.40;2.20;2.00
50589;PMS7003;36547;50.514;30.840;2023-07-28T04:59:07;1.70;1.70;1.70
50589;PMS7003;36547;50.514;30.840;2023-07-28T05:00:10;3.80;2.40;1.90
50589;PMS7003;36547;50.514;30.840;2023-07-28T05:01:14;2.80;2.80;2.00
50589;PMS7003;36547;50.514;30.840;2023-07-28T05:02:18;3.30;3.30;2.90
50589;PMS7003;36547;50.514;30.840;2023-07-28T05:03:20;3.20;3.20;2.50
50589;PMS7003;36547;50.514;30.840;2023-07-28T05:04:26;3.00;3.00;2.80
50589;PMS7003;36547;50.514;30.840;2023-07-28T05:05:29;2.10;2.10;1.60
50589;PMS7003;36547;50.514;30.840;2023-07-28T05:06:32;2.09;2.09;1.73
50589;PMS7003;36547;50.514;30.840;2023-07-28T05:07:34;3.60;2.20;1.90
50589;PMS7003;36547;50.514;30.840;2023-07-28T05:08:38;2.00;2.00;1.90
50589;PMS7003;36547;50.514;30.840;2023-07-28T05:09:41;2.50;2.50;1.80
50589;PMS7003;36547;50.514;30.840;2023-07-28T05:10:44;3.30;3.30;3.20
50589;PMS7003;36547;50.514;30.840;2023-07-28T05:11:47;2.18;2.18;1.73
50589;PMS7003;36547;50.514;30.840;2023-07-28T05:12:50;5.33;3.44;3.00
50589;PMS7003;36547;50.514;30.840;2023-07-28T05:13:53;2.10;2.10;1.80
50589;PMS7003;36547;50.514;30.840;2023-07-28T05:14:56;3.00;2.20;1.90
50589;PMS7003;36547;50.514;30.840;2023-07-28T05:15:59;3.00;3.00;3.00
50589;PMS7003;36547;50.514;30.840;2023-07-28T05:17:09;2.00;2.00;1.50
50589;PMS7003;36547;50.514;30.840;2023-07-28T05:18:18;2.80;2.80;2.20
50589;PMS7003;36547;50.514;30.840;2023-07-28T05:19:28;3.30;3.10;3.10
50589;PMS7003;36547;50.514;30.840;2023-07-28T05:20:32;3.40;3.20;2.70
50589;PMS7003;36547;50.514;30.840;2023-07-28T05:21:43;3.00;3.00;2.60
50589;PMS7003;36547;50.514;30.840;2023-07-28T05:22:48;2.30;2.30;2.00
50589;PMS7003;36547;50.514;30.840;2023-07-28T05:23:52;2.70;2.70;2.10
50589;PMS7003;36547;50.514;30.840;2023-07-28T05:24:54;2.90;2.80;2.30
50589;PMS7003;36547;50.514;30.840;2023-07-28T05:25:59;2.70;2.50;2.30
50589;PMS7003;36547;50.514;30.840;2023-07-28T05:27:01;2.10;2.10;2.00
50589;PMS7003;36547;50.514;30.840;2023-07-28T05:28:04;3.09;2.36;2.09
50589;PMS7003;36547;50.514;30.840;2023-07-28T05:29:08;2.30;2.30;2.30
50589;PMS7003;36547;50.514;30.840;2023-07-28T05:30:11;2.36;2.36;2.27
50589;PMS7003;36547;50.514;30.840;2023-07-28T05:31:14;4.50;2.70;2.60
50589;PMS7003;36547;50.514;30.840;2023-07-28T05:32:17;3.09;3.09;2.82
50589;PMS7003;36547;50.514;30.840;2023-07-28T05:33:24;2.80;2.80;2.40
50589;PMS7003;36547;50.514;30.840;2023-07-28T05:34:27;3.40;3.40;2.50
50589;PMS7003;36547;50.514;30.840;2023-07-28T05:35:30;3.30;3.30;2.20
50589;PMS7003;36547;50.514;30.840;2023-07-28T05:36:34;3.50;3.50;2.90
50589;PMS7003;36547;50.514;30.840;2023-07-28T05:37:37;3.45;2.73;1.91
50589;PMS7003;36547;50.514;30.840;2023-07-28T05:38:39;3.60;3.60;2.50
50589;PMS7003;36547;50.514;30.840;2023-07-28T05:39:42;4.10;4.10;3.40
50589;PMS7003;36547;50.514;30.840;2023-07-28T05:40:45;2.80;2.60;2.20
50589;PMS7003;36547;50.514;30.840;2023-07-28T05:41:48;3.80;3.80;2.60
50589;PMS7003;36547;50.514;30.840;2023-07-28T05:42:50;3.70;3.20;3.00
50589;PMS7003;36547;50.514;30.840;2023-07-28T05:43:52;3.80;3.00;2.70
50589;PMS7003;36547;50.514;30.840;2023-07-28T05:44:55;3.00;3.00;2.70
50589;PMS7003;36547;50.514;30.840;2023-07-28T05:45:57;2.90;2.90;2.70
50589;PMS7003;36547;50.514;30.840;2023-07-28T05:47:03;3.40;2.60;2.00
50589;PMS7003;36547;50.514;30.840;2023-07-28T05:48:06;3.27;3.00;2.64
50589;PMS7003;36547;50.514;30.840;2023-07-28T05:49:09;4.00;3.55;2.73
50589;PMS7003;36547;50.514;30.840;2023-07-28T05:50:12;4.09;4.09;3.55
50589;PMS7003;36547;50.514;30.840;2023-07-28T05:51:15;3.00;3.00;2.45
50589;PMS7003;36547;50.514;30.840;2023-07-28T05:52:17;5.00;3.80;3.20
50589;PMS7003;36547;50.514;30.840;2023-07-28T05:53:20;3.00;3.00;2.70
50589;PMS7003;36547;50.514;30.840;2023-07-28T05:54:24;3.30;2.60;2.30
50589;PMS7003;36547;50.514;30.840;2023-07-28T05:55:27;5.50;3.80;2.90
50589;PMS7003;36547;50.514;30.840;2023-07-28T05:56:31;4.10;3.00;3.00
50589;PMS7003;36547;50.514;30.840;2023-07-28T05:57:34;2.27;2.27;1.64
50589;PMS7003;36547;50.514;30.840;2023-07-28T05:58:38;4.30;4.30;3.10
50589;PMS7003;36547;50.514;30.840;2023-07-28T05:59:41;4.64;4.09;3.18
50589;PMS7003;36547;50.514;30.840;2023-07-28T06:00:44;6.20;4.70;3.80
50589;PMS7003;36547;50.514;30.840;2023-07-28T06:01:49;5.10;5.10;3.90
50589;PMS7003;36547;50.514;30.840;2023-07-28T06:02:58;3.00;3.00;3.00
50589;PMS7003;36547;50.514;30.840;2023-07-28T06:04:02;4.40;3.80;3.40
50589;PMS7003;36547;50.514;30.840;2023-07-28T06:05:07;4.30;3.80;3.60
50589;PMS7003;36547;50.514;30.840;2023-07-28T06:06:10;3.50;3.50;3.50
50589;PMS7003;36547;50.514;30.840;2023-07-28T06:07:13;2.70;2.70;2.00
50589;PMS7003;36547;50.514;30.840;2023-07-28T06:08:15;3.18;3.18;2.82
50589;PMS7003;36547;50.514;30.840;2023-07-28T06:09:18;3.00;3.00;2.70
50589;PMS7003;36547;50.514;30.840;2023-07-28T06:10:20;3.40;3.40;2.80
50589;PMS7003;36547;50.514;30.840;2023-07-28T06:11:23;3.60;3.60;2.60
50589;PMS7003;36547;50.514;30.840;2023-07-28T06:12:26;3.50;3.50;3.00